sensor_id;sensor_type;location;lat;lon;timestamp;P1;durP1;ratioP1;P2;durP2;ratioP2
65035;SDS011;51603;49.300;8.880;2023-12-07T00:01:43;33.80;;;27.10;;
65035;SDS011;51603;49.300;8.880;2023-12-07T00:04:08;28.93;;;25.63;;
65035;SDS011;51603;49.300;8.880;2023-12-07T00:06:34;29.30;;;26.03;;
65035;SDS011;51603;49.300;8.880;2023-12-07T00:08:59;29.47;;;26.37;;
65035;SDS011;51603;49.300;8.880;2023-12-07T00:11:26;29.50;;;22.80;;
65035;SDS011;51603;49.300;8.880;2023-12-07T00:13:51;28.23;;;24.60;;
65035;SDS011;51603;49.300;8.880;2023-12-07T00:16:17;30.57;;;27.27;;
65035;SDS011;51603;49.300;8.880;2023-12-07T00:18:42;35.50;;;31.37;;
65035;SDS011;51603;49.300;8.880;2023-12-07T00:21:08;38.37;;;30.83;;
65035;SDS011;51603;49.300;8.880;2023-12-07T00:23:34;32.33;;;28.47;;
65035;SDS011;51603;49.300;8.880;2023-12-07T00:25:59;39.63;;;32.17;;
65035;SDS011;51603;49.300;8.880;2023-12-07T00:28:25;45.37;;;36.83;;
65035;SDS011;51603;49.300;8.880;2023-12-07T00:30:51;42.27;;;36.80;;
65035;SDS011;51603;49.300;8.880;2023-12-07T00:33:17;43.97;;;36.97;;
65035;SDS011;51603;49.300;8.880;2023-12-07T00:35:42;47.87;;;39.30;;
65035;SDS011;51603;49.300;8.880;2023-12-07T00:38:08;48.43;;;40.43;;
65035;SDS011;51603;49.300;8.880;2023-12-07T00:40:34;47.10;;;38.83;;
65035;SDS011;51603;49.300;8.880;2023-12-07T00:43:02;43.43;;;36.00;;
65035;SDS011;51603;49.300;8.880;2023-12-07T00:45:28;46.57;;;36.10;;
65035;SDS011;51603;49.300;8.880;2023-12-07T00:47:54;53.57;;;42.00;;
65035;SDS011;51603;49.300;8.880;2023-12-07T00:50:19;41.20;;;34.80;;
65035;SDS011;51603;49.300;8.880;2023-12-07T00:52:44;41.70;;;35.03;;
65035;SDS011;51603;49.300;8.880;2023-12-07T00:55:10;41.33;;;32.17;;
65035;SDS011;51603;49.300;8.880;2023-12-07T00:57:36;40.77;;;30.97;;
65035;SDS011;51603;49.300;8.880;2023-12-07T01:00:01;47.57;;;33.57;;
65035;SDS011;51603;49.300;8.880;2023-12-07T01:02:28;35.07;;;30.60;;
65035;SDS011;51603;49.300;8.880;2023-12-07T01:04:54;35.27;;;28.93;;
65035;SDS011;51603;49.300;8.880;2023-12-07T01:07:19;51.13;;;36.33;;
65035;SDS011;51603;49.300;8.880;2023-12-07T01:09:46;32.60;;;27.93;;
65035;SDS011;51603;49.300;8.880;2023-12-07T01:12:11;33.23;;;27.10;;
65035;SDS011;51603;49.300;8.880;2023-12-07T01:14:37;32.13;;;27.93;;
65035;SDS011;51603;49.300;8.880;2023-12-07T01:17:03;39.97;;;33.20;;
65035;SDS011;51603;49.300;8.880;2023-12-07T01:19:28;41.90;;;37.27;;
65035;SDS011;51603;49.300;8.880;2023-12-07T01:21:54;52.50;;;44.93;;
65035;SDS011;51603;49.300;8.880;2023-12-07T01:24:19;59.07;;;50.50;;
65035;SDS011;51603;49.300;8.880;2023-12-07T01:26:45;53.57;;;44.77;;
65035;SDS011;51603;49.300;8.880;2023-12-07T01:29:10;46.33;;;39.03;;
65035;SDS011;51603;49.300;8.880;2023-12-07T01:31:36;47.40;;;36.87;;
65035;SDS011;51603;49.300;8.880;2023-12-07T01:34:02;49.80;;;35.50;;
65035;SDS011;51603;49.300;8.880;2023-12-07T01:36:27;41.13;;;30.00;;
65035;SDS011;51603;49.300;8.880;2023-12-07T01:38:53;56.10;;;39.57;;
65035;SDS011;51603;49.300;8.880;2023-12-07T01:41:18;44.30;;;34.17;;
65035;SDS011;51603;49.300;8.880;2023-12-07T01:43:45;44.90;;;35.40;;
65035;SDS011;51603;49.300;8.880;2023-12-07T01:46:11;56.43;;;40.97;;
65035;SDS011;51603;49.300;8.880;2023-12-07T01:48:37;54.90;;;38.40;;
65035;SDS011;51603;49.300;8.880;2023-12-07T01:51:02;45.90;;;35.63;;
65035;SDS011;51603;49.300;8.880;2023-12-07T01:53:28;45.50;;;33.00;;
65035;SDS011;51603;49.300;8.880;2023-12-07T01:55:54;45.70;;;33.10;;
65035;SDS011;51603;49.300;8.880;2023-12-07T01:58:20;51.43;;;35.40;;
65035;SDS011;51603;49.300;8.880;2023-12-07T02:00:46;51.70;;;37.20;;
65035;SDS011;51603;49.300;8.880;2023-12-07T02:03:12;55.47;;;39.33;;
65035;SDS011;51603;49.300;8.880;2023-12-07T02:05:39;45.08;;;32.53;;
65035;SDS011;51603;49.300;8.880;2023-12-07T02:08:07;55.90;;;35.53;;
65035;SDS011;51603;49.300;8.880;2023-12-07T02:10:33;51.70;;;35.50;;
65035;SDS011;51603;49.300;8.880;2023-12-07T02:12:58;43.63;;;30.90;;
65035;SDS011;51603;49.300;8.880;2023-12-07T02:15:24;40.77;;;29.03;;
65035;SDS011;51603;49.300;8.880;2023-12-07T02:17:55;41.23;;;30.33;;
65035;SDS011;51603;49.300;8.880;2023-12-07T02:20:45;38.15;;;28.30;;
65035;SDS011;51603;49.300;8.880;2023-12-07T02:23:16;35.55;;;25.60;;
65035;SDS011;51603;49.300;8.880;2023-12-07T02:28:50;34.90;;;25.97;;
65035;SDS011;51603;49.300;8.880;2023-12-07T02:31:15;28.33;;;22.87;;
65035;SDS011;51603;49.300;8.880;2023-12-07T02:33:41;29.33;;;26.10;;
65035;SDS011;51603;49.300;8.880;2023-12-07T02:36:06;34.30;;;26.63;;
65035;SDS011;51603;49.300;8.880;2023-12-07T02:38:32;63.13;;;32.33;;
65035;SDS011;51603;49.300;8.880;2023-12-07T02:40:58;104.43;;;35.37;;
65035;SDS011;51603;49.300;8.880;2023-12-07T02:43:25;58.28;;;34.92;;
65035;SDS011;51603;49.300;8.880;2023-12-07T02:45:51;72.17;;;36.30;;
65035;SDS011;51603;49.300;8.880;2023-12-07T02:48:17;47.90;;;36.00;;
65035;SDS011;51603;49.300;8.880;2023-12-07T02:50:42;47.17;;;33.27;;
65035;SDS011;51603;49.300;8.880;2023-12-07T02:53:08;44.43;;;32.00;;
65035;SDS011;51603;49.300;8.880;2023-12-07T02:55:34;41.63;;;29.97;;
65035;SDS011;51603;49.300;8.880;2023-12-07T02:57:59;46.13;;;31.57;;
65035;SDS011;51603;49.300;8.880;2023-12-07T03:00:25;38.23;;;28.37;;
65035;SDS011;51603;49.300;8.880;2023-12-07T03:02:50;38.40;;;29.10;;
65035;SDS011;51603;49.300;8.880;2023-12-07T03:05:16;39.33;;;28.38;;
65035;SDS011;51603;49.300;8.880;2023-12-07T03:07:44;41.22;;;27.92;;
65035;SDS011;51603;49.300;8.880;2023-12-07T03:10:10;38.87;;;30.10;;
65035;SDS011;51603;49.300;8.880;2023-12-07T03:12:35;36.73;;;29.70;;
65035;SDS011;51603;49.300;8.880;2023-12-07T03:15:01;41.03;;;30.50;;
65035;SDS011;51603;49.300;8.880;2023-12-07T03:17:26;37.83;;;27.37;;
65035;SDS011;51603;49.300;8.880;2023-12-07T03:19:52;36.97;;;29.63;;
65035;SDS011;51603;49.300;8.880;2023-12-07T03:22:17;34.83;;;27.30;;
65035;SDS011;51603;49.300;8.880;2023-12-07T03:24:44;41.40;;;28.98;;
65035;SDS011;51603;49.300;8.880;2023-12-07T03:27:11;38.35;;;27.10;;
65035;SDS011;51603;49.300;8.880;2023-12-07T03:29:37;34.10;;;27.00;;
65035;SDS011;51603;49.300;8.880;2023-12-07T03:32:02;131.27;;;35.23;;
65035;SDS011;51603;49.300;8.880;2023-12-07T03:34:28;36.63;;;27.00;;
65035;SDS011;51603;49.300;8.880;2023-12-07T03:36:54;35.70;;;26.97;;
65035;SDS011;51603;49.300;8.880;2023-12-07T03:39:19;35.13;;;26.80;;
65035;SDS011;51603;49.300;8.880;2023-12-07T03:41:47;62.75;;;29.92;;
65035;SDS011;51603;49.300;8.880;2023-12-07T03:44:13;38.95;;;27.13;;
65035;SDS011;51603;49.300;8.880;2023-12-07T03:46:39;44.77;;;30.13;;
65035;SDS011;51603;49.300;8.880;2023-12-07T03:49:04;39.47;;;28.40;;
65035;SDS011;51603;49.300;8.880;2023-12-07T03:51:30;67.80;;;30.27;;
65035;SDS011;51603;49.300;8.880;2023-12-07T03:53:56;49.97;;;28.57;;
65035;SDS011;51603;49.300;8.880;2023-12-07T03:56:22;42.20;;;26.80;;
65035;SDS011;51603;49.300;8.880;2023-12-07T03:58:49;39.15;;;26.60;;
65035;SDS011;51603;49.300;8.880;2023-12-07T04:01:14;46.37;;;27.27;;
65035;SDS011;51603;49.300;8.880;2023-12-07T04:03:40;33.43;;;24.53;;
65035;SDS011;51603;49.300;8.880;2023-12-07T04:06:05;34.23;;;25.30;;
65035;SDS011;51603;49.300;8.880;2023-12-07T04:08:31;53.50;;;27.80;;
65035;SDS011;51603;49.300;8.880;2023-12-07T04:10:56;32.93;;;26.27;;
65035;SDS011;51603;49.300;8.880;2023-12-07T04:13:22;33.33;;;25.97;;
65035;SDS011;51603;49.300;8.880;2023-12-07T04:15:47;32.57;;;24.00;;
65035;SDS011;51603;49.300;8.880;2023-12-07T04:18:13;191.03;;;33.53;;
65035;SDS011;51603;49.300;8.880;2023-12-07T04:20:38;80.27;;;26.07;;
65035;SDS011;51603;49.300;8.880;2023-12-07T04:23:04;95.33;;;28.00;;
65035;SDS011;51603;49.300;8.880;2023-12-07T04:25:29;39.13;;;23.70;;
65035;SDS011;51603;49.300;8.880;2023-12-07T04:27:55;60.10;;;24.93;;
65035;SDS011;51603;49.300;8.880;2023-12-07T04:30:20;31.03;;;23.20;;
65035;SDS011;51603;49.300;8.880;2023-12-07T04:32:46;48.77;;;25.07;;
65035;SDS011;51603;49.300;8.880;2023-12-07T04:35:11;58.30;;;26.20;;
65035;SDS011;51603;49.300;8.880;2023-12-07T04:37:37;60.53;;;26.03;;
65035;SDS011;51603;49.300;8.880;2023-12-07T04:40:02;31.03;;;22.17;;
65035;SDS011;51603;49.300;8.880;2023-12-07T04:42:29;58.90;;;24.83;;
65035;SDS011;51603;49.300;8.880;2023-12-07T04:44:55;83.30;;;29.30;;
65035;SDS011;51603;49.300;8.880;2023-12-07T04:47:20;35.80;;;22.93;;
65035;SDS011;51603;49.300;8.880;2023-12-07T04:49:46;40.53;;;24.33;;
65035;SDS011;51603;49.300;8.880;2023-12-07T04:52:12;36.47;;;24.63;;
65035;SDS011;51603;49.300;8.880;2023-12-07T04:54:37;37.20;;;23.00;;
65035;SDS011;51603;49.300;8.880;2023-12-07T04:57:03;36.27;;;24.63;;
65035;SDS011;51603;49.300;8.880;2023-12-07T04:59:29;92.17;;;31.00;;
65035;SDS011;51603;49.300;8.880;2023-12-07T05:01:54;70.30;;;27.43;;
65035;SDS011;51603;49.300;8.880;2023-12-07T05:04:20;148.90;;;35.30;;
65035;SDS011;51603;49.300;8.880;2023-12-07T05:06:45;86.93;;;39.27;;
65035;SDS011;51603;49.300;8.880;2023-12-07T05:09:11;50.27;;;30.70;;
65035;SDS011;51603;49.300;8.880;2023-12-07T05:11:36;42.60;;;24.90;;
65035;SDS011;51603;49.300;8.880;2023-12-07T05:14:02;37.23;;;24.40;;
65035;SDS011;51603;49.300;8.880;2023-12-07T05:16:28;66.30;;;24.80;;
65035;SDS011;51603;49.300;8.880;2023-12-07T05:18:54;33.07;;;23.27;;
65035;SDS011;51603;49.300;8.880;2023-12-07T05:21:20;43.95;;;25.15;;
65035;SDS011;51603;49.300;8.880;2023-12-07T05:23:46;214.57;;;38.03;;
65035;SDS011;51603;49.300;8.880;2023-12-07T05:26:11;71.13;;;26.83;;
65035;SDS011;51603;49.300;8.880;2023-12-07T05:28:37;77.93;;;26.80;;
65035;SDS011;51603;49.300;8.880;2023-12-07T05:31:03;49.47;;;23.70;;
65035;SDS011;51603;49.300;8.880;2023-12-07T05:33:28;60.90;;;30.90;;
65035;SDS011;51603;49.300;8.880;2023-12-07T05:35:54;59.70;;;30.70;;
65035;SDS011;51603;49.300;8.880;2023-12-07T05:38:19;48.40;;;27.13;;
65035;SDS011;51603;49.300;8.880;2023-12-07T05:40:45;46.00;;;29.33;;
65035;SDS011;51603;49.300;8.880;2023-12-07T05:43:10;58.53;;;25.10;;
65035;SDS011;51603;49.300;8.880;2023-12-07T05:45:36;111.67;;;37.00;;
65035;SDS011;51603;49.300;8.880;2023-12-07T05:48:01;89.53;;;36.20;;
65035;SDS011;51603;49.300;8.880;2023-12-07T05:50:27;123.13;;;37.67;;
65035;SDS011;51603;49.300;8.880;2023-12-07T05:52:53;69.30;;;34.05;;
65035;SDS011;51603;49.300;8.880;2023-12-07T05:55:20;138.68;;;36.70;;
65035;SDS011;51603;49.300;8.880;2023-12-07T05:57:45;45.60;;;25.83;;
65035;SDS011;51603;49.300;8.880;2023-12-07T06:00:11;69.47;;;28.47;;
65035;SDS011;51603;49.300;8.880;2023-12-07T06:02:37;45.25;;;27.90;;
65035;SDS011;51603;49.300;8.880;2023-12-07T06:05:03;55.10;;;30.70;;
65035;SDS011;51603;49.300;8.880;2023-12-07T06:07:30;77.93;;;33.55;;
65035;SDS011;51603;49.300;8.880;2023-12-07T06:09:55;42.30;;;24.93;;
65035;SDS011;51603;49.300;8.880;2023-12-07T06:12:21;46.90;;;26.33;;
65035;SDS011;51603;49.300;8.880;2023-12-07T06:14:49;43.80;;;27.37;;
65035;SDS011;51603;49.300;8.880;2023-12-07T06:17:15;153.85;;;36.33;;
65035;SDS011;51603;49.300;8.880;2023-12-07T06:19:41;111.10;;;34.72;;
65035;SDS011;51603;49.300;8.880;2023-12-07T06:22:07;45.83;;;25.20;;
65035;SDS011;51603;49.300;8.880;2023-12-07T06:24:33;148.13;;;31.98;;
65035;SDS011;51603;49.300;8.880;2023-12-07T06:26:59;240.37;;;41.97;;
65035;SDS011;51603;49.300;8.880;2023-12-07T06:29:26;80.43;;;29.27;;
65035;SDS011;51603;49.300;8.880;2023-12-07T06:31:52;59.07;;;25.37;;
65035;SDS011;51603;49.300;8.880;2023-12-07T06:34:17;81.30;;;27.73;;
65035;SDS011;51603;49.300;8.880;2023-12-07T06:36:44;252.25;;;40.30;;
65035;SDS011;51603;49.300;8.880;2023-12-07T06:39:10;148.73;;;35.13;;
65035;SDS011;51603;49.300;8.880;2023-12-07T06:41:35;244.77;;;44.90;;
65035;SDS011;51603;49.300;8.880;2023-12-07T06:44:01;231.20;;;49.13;;
65035;SDS011;51603;49.300;8.880;2023-12-07T06:46:27;189.57;;;43.53;;
65035;SDS011;51603;49.300;8.880;2023-12-07T06:48:52;96.60;;;33.73;;
65035;SDS011;51603;49.300;8.880;2023-12-07T06:51:18;112.90;;;37.83;;
65035;SDS011;51603;49.300;8.880;2023-12-07T06:53:43;84.80;;;35.33;;
65035;SDS011;51603;49.300;8.880;2023-12-07T06:56:09;71.33;;;29.00;;
65035;SDS011;51603;49.300;8.880;2023-12-07T06:58:34;163.70;;;34.30;;
65035;SDS011;51603;49.300;8.880;2023-12-07T07:01:00;120.93;;;37.10;;
65035;SDS011;51603;49.300;8.880;2023-12-07T07:03:25;402.30;;;61.13;;
65035;SDS011;51603;49.300;8.880;2023-12-07T07:05:52;328.98;;;53.72;;
65035;SDS011;51603;49.300;8.880;2023-12-07T07:08:19;192.38;;;38.15;;
65035;SDS011;51603;49.300;8.880;2023-12-07T07:10:44;87.97;;;34.67;;
65035;SDS011;51603;49.300;8.880;2023-12-07T07:13:11;72.82;;;29.48;;
65035;SDS011;51603;49.300;8.880;2023-12-07T07:15:39;138.73;;;35.30;;
65035;SDS011;51603;49.300;8.880;2023-12-07T07:18:07;56.70;;;28.38;;
65035;SDS011;51603;49.300;8.880;2023-12-07T07:20:33;311.23;;;47.03;;
65035;SDS011;51603;49.300;8.880;2023-12-07T07:22:59;142.03;;;37.33;;
65035;SDS011;51603;49.300;8.880;2023-12-07T07:25:24;241.07;;;43.63;;
65035;SDS011;51603;49.300;8.880;2023-12-07T07:27:50;271.93;;;53.23;;
65035;SDS011;51603;49.300;8.880;2023-12-07T07:30:15;205.70;;;53.83;;
65035;SDS011;51603;49.300;8.880;2023-12-07T07:32:41;291.93;;;49.60;;
65035;SDS011;51603;49.300;8.880;2023-12-07T07:35:06;71.20;;;30.37;;
65035;SDS011;51603;49.300;8.880;2023-12-07T07:37:33;230.83;;;47.80;;
65035;SDS011;51603;49.300;8.880;2023-12-07T07:39:58;144.77;;;39.70;;
65035;SDS011;51603;49.300;8.880;2023-12-07T07:42:24;333.80;;;53.90;;
65035;SDS011;51603;49.300;8.880;2023-12-07T07:44:50;354.30;;;57.97;;
65035;SDS011;51603;49.300;8.880;2023-12-07T07:47:16;172.63;;;43.73;;
65035;SDS011;51603;49.300;8.880;2023-12-07T07:49:42;219.48;;;46.42;;
65035;SDS011;51603;49.300;8.880;2023-12-07T07:52:07;222.70;;;44.47;;
65035;SDS011;51603;49.300;8.880;2023-12-07T07:54:33;317.57;;;58.83;;
65035;SDS011;51603;49.300;8.880;2023-12-07T07:56:59;136.83;;;38.43;;
65035;SDS011;51603;49.300;8.880;2023-12-07T07:59:24;76.10;;;32.60;;
65035;SDS011;51603;49.300;8.880;2023-12-07T08:01:49;90.97;;;35.00;;
65035;SDS011;51603;49.300;8.880;2023-12-07T08:04:15;74.57;;;29.53;;
65035;SDS011;51603;49.300;8.880;2023-12-07T08:06:41;86.73;;;31.20;;
65035;SDS011;51603;49.300;8.880;2023-12-07T08:09:07;92.60;;;33.33;;
65035;SDS011;51603;49.300;8.880;2023-12-07T08:11:34;72.90;;;32.22;;
65035;SDS011;51603;49.300;8.880;2023-12-07T08:14:00;84.77;;;31.83;;
65035;SDS011;51603;49.300;8.880;2023-12-07T08:16:25;69.63;;;29.70;;
65035;SDS011;51603;49.300;8.880;2023-12-07T08:18:52;68.00;;;28.20;;
65035;SDS011;51603;49.300;8.880;2023-12-07T08:21:18;98.47;;;35.93;;
65035;SDS011;51603;49.300;8.880;2023-12-07T08:23:45;67.47;;;28.40;;
65035;SDS011;51603;49.300;8.880;2023-12-07T08:26:10;78.87;;;30.07;;
65035;SDS011;51603;49.300;8.880;2023-12-07T08:28:36;92.37;;;33.53;;
65035;SDS011;51603;49.300;8.880;2023-12-07T08:31:01;116.73;;;35.00;;
65035;SDS011;51603;49.300;8.880;2023-12-07T08:33:27;74.13;;;29.00;;
65035;SDS011;51603;49.300;8.880;2023-12-07T08:35:53;81.00;;;30.40;;
65035;SDS011;51603;49.300;8.880;2023-12-07T08:38:20;58.77;;;26.90;;
65035;SDS011;51603;49.300;8.880;2023-12-07T08:40:47;77.07;;;28.40;;
65035;SDS011;51603;49.300;8.880;2023-12-07T08:43:12;72.60;;;30.07;;
65035;SDS011;51603;49.300;8.880;2023-12-07T08:45:38;133.53;;;36.43;;
65035;SDS011;51603;49.300;8.880;2023-12-07T08:48:04;133.27;;;35.83;;
65035;SDS011;51603;49.300;8.880;2023-12-07T08:50:29;85.60;;;33.50;;
65035;SDS011;51603;49.300;8.880;2023-12-07T08:52:55;158.77;;;43.90;;
65035;SDS011;51603;49.300;8.880;2023-12-07T08:55:20;256.50;;;52.13;;
65035;SDS011;51603;49.300;8.880;2023-12-07T08:57:46;98.50;;;34.90;;
65035;SDS011;51603;49.300;8.880;2023-12-07T09:00:12;157.50;;;38.83;;
65035;SDS011;51603;49.300;8.880;2023-12-07T09:02:38;116.20;;;37.87;;
65035;SDS011;51603;49.300;8.880;2023-12-07T09:05:04;111.03;;;36.27;;
65035;SDS011;51603;49.300;8.880;2023-12-07T09:07:29;150.93;;;41.17;;
65035;SDS011;51603;49.300;8.880;2023-12-07T09:09:55;284.87;;;67.17;;
65035;SDS011;51603;49.300;8.880;2023-12-07T09:12:20;155.87;;;43.30;;
65035;SDS011;51603;49.300;8.880;2023-12-07T09:14:46;141.87;;;42.40;;
65035;SDS011;51603;49.300;8.880;2023-12-07T09:17:11;152.87;;;39.23;;
65035;SDS011;51603;49.300;8.880;2023-12-07T09:19:37;102.43;;;36.40;;
65035;SDS011;51603;49.300;8.880;2023-12-07T09:22:02;153.73;;;45.97;;
65035;SDS011;51603;49.300;8.880;2023-12-07T09:24:28;87.90;;;35.70;;
65035;SDS011;51603;49.300;8.880;2023-12-07T09:26:53;104.90;;;34.13;;
65035;SDS011;51603;49.300;8.880;2023-12-07T09:29:19;218.17;;;52.97;;
65035;SDS011;51603;49.300;8.880;2023-12-07T09:31:44;203.03;;;49.97;;
65035;SDS011;51603;49.300;8.880;2023-12-07T09:34:10;102.27;;;35.60;;
65035;SDS011;51603;49.300;8.880;2023-12-07T09:36:36;130.93;;;44.55;;
65035;SDS011;51603;49.300;8.880;2023-12-07T09:39:02;147.17;;;42.13;;
65035;SDS011;51603;49.300;8.880;2023-12-07T09:41:28;98.83;;;39.37;;
65035;SDS011;51603;49.300;8.880;2023-12-07T09:43:54;120.70;;;41.90;;
65035;SDS011;51603;49.300;8.880;2023-12-07T09:46:20;122.73;;;45.57;;
65035;SDS011;51603;49.300;8.880;2023-12-07T09:48:46;118.83;;;44.30;;
65035;SDS011;51603;49.300;8.880;2023-12-07T09:51:14;122.87;;;47.43;;
65035;SDS011;51603;49.300;8.880;2023-12-07T09:53:40;114.67;;;46.70;;
65035;SDS011;51603;49.300;8.880;2023-12-07T09:56:08;92.00;;;39.07;;
65035;SDS011;51603;49.300;8.880;2023-12-07T09:58:34;81.40;;;39.60;;
65035;SDS011;51603;49.300;8.880;2023-12-07T10:00:59;90.70;;;41.67;;
65035;SDS011;51603;49.300;8.880;2023-12-07T10:03:25;64.37;;;34.90;;
65035;SDS011;51603;49.300;8.880;2023-12-07T10:05:57;72.43;;;39.10;;
65035;SDS011;51603;49.300;8.880;2023-12-07T10:08:25;59.70;;;37.10;;
65035;SDS011;51603;49.300;8.880;2023-12-07T10:11:05;75.37;;;36.00;;
65035;SDS011;51603;49.300;8.880;2023-12-07T10:13:31;67.70;;;35.27;;
65035;SDS011;51603;49.300;8.880;2023-12-07T10:16:09;52.97;;;32.70;;
65035;SDS011;51603;49.300;8.880;2023-12-07T10:18:39;60.60;;;34.10;;
65035;SDS011;51603;49.300;8.880;2023-12-07T10:21:05;54.10;;;35.03;;
65035;SDS011;51603;49.300;8.880;2023-12-07T10:23:32;63.60;;;36.77;;
65035;SDS011;51603;49.300;8.880;2023-12-07T10:25:58;57.97;;;34.90;;
65035;SDS011;51603;49.300;8.880;2023-12-07T10:28:27;52.00;;;34.43;;
65035;SDS011;51603;49.300;8.880;2023-12-07T10:30:52;71.03;;;40.87;;
65035;SDS011;51603;49.300;8.880;2023-12-07T10:33:19;70.53;;;38.77;;
65035;SDS011;51603;49.300;8.880;2023-12-07T10:35:46;66.13;;;38.20;;
65035;SDS011;51603;49.300;8.880;2023-12-07T10:38:13;63.00;;;35.87;;
65035;SDS011;51603;49.300;8.880;2023-12-07T10:40:39;65.17;;;34.63;;
65035;SDS011;51603;49.300;8.880;2023-12-07T10:43:05;46.37;;;30.27;;
65035;SDS011;51603;49.300;8.880;2023-12-07T10:45:32;59.13;;;35.27;;
65035;SDS011;51603;49.300;8.880;2023-12-07T10:48:06;46.50;;;30.00;;
65035;SDS011;51603;49.300;8.880;2023-12-07T10:50:37;48.70;;;31.00;;
65035;SDS011;51603;49.300;8.880;2023-12-07T10:53:09;48.13;;;31.87;;
65035;SDS011;51603;49.300;8.880;2023-12-07T10:55:45;52.07;;;31.97;;
65035;SDS011;51603;49.300;8.880;2023-12-07T10:58:13;44.03;;;31.60;;
65035;SDS011;51603;49.300;8.880;2023-12-07T11:00:44;46.47;;;31.50;;
65035;SDS011;51603;49.300;8.880;2023-12-07T11:03:14;40.07;;;28.37;;
65035;SDS011;51603;49.300;8.880;2023-12-07T11:05:41;41.83;;;30.57;;
65035;SDS011;51603;49.300;8.880;2023-12-07T11:08:09;46.07;;;30.93;;
65035;SDS011;51603;49.300;8.880;2023-12-07T11:10:49;44.73;;;30.00;;
65035;SDS011;51603;49.300;8.880;2023-12-07T11:13:20;51.70;;;32.50;;
65035;SDS011;51603;49.300;8.880;2023-12-07T11:15:52;46.87;;;32.90;;
65035;SDS011;51603;49.300;8.880;2023-12-07T11:18:17;46.97;;;29.13;;
65035;SDS011;51603;49.300;8.880;2023-12-07T11:20:44;45.17;;;29.93;;
65035;SDS011;51603;49.300;8.880;2023-12-07T11:23:11;51.20;;;32.10;;
65035;SDS011;51603;49.300;8.880;2023-12-07T11:25:41;47.93;;;30.50;;
65035;SDS011;51603;49.300;8.880;2023-12-07T11:28:10;48.57;;;30.70;;
65035;SDS011;51603;49.300;8.880;2023-12-07T11:30:36;51.77;;;30.70;;
65035;SDS011;51603;49.300;8.880;2023-12-07T11:33:05;47.57;;;29.70;;
65035;SDS011;51603;49.300;8.880;2023-12-07T11:35:31;51.77;;;33.03;;
65035;SDS011;51603;49.300;8.880;2023-12-07T11:38:01;50.63;;;33.00;;
65035;SDS011;51603;49.300;8.880;2023-12-07T11:40:30;40.97;;;26.53;;
65035;SDS011;51603;49.300;8.880;2023-12-07T11:43:04;37.87;;;27.00;;
65035;SDS011;51603;49.300;8.880;2023-12-07T11:45:37;45.03;;;28.40;;
65035;SDS011;51603;49.300;8.880;2023-12-07T11:48:21;41.57;;;26.70;;
65035;SDS011;51603;49.300;8.880;2023-12-07T11:51:06;44.20;;;27.40;;
65035;SDS011;51603;49.300;8.880;2023-12-07T11:53:36;36.80;;;25.53;;
65035;SDS011;51603;49.300;8.880;2023-12-07T11:56:06;38.10;;;25.00;;
65035;SDS011;51603;49.300;8.880;2023-12-07T11:58:36;32.13;;;23.97;;
65035;SDS011;51603;49.300;8.880;2023-12-07T12:01:02;32.80;;;25.13;;
65035;SDS011;51603;49.300;8.880;2023-12-07T12:03:29;31.33;;;23.23;;
65035;SDS011;51603;49.300;8.880;2023-12-07T12:05:57;40.03;;;24.67;;
65035;SDS011;51603;49.300;8.880;2023-12-07T12:08:23;30.53;;;22.20;;
65035;SDS011;51603;49.300;8.880;2023-12-07T12:10:49;30.23;;;21.83;;
65035;SDS011;51603;49.300;8.880;2023-12-07T12:13:17;34.53;;;23.40;;
65035;SDS011;51603;49.300;8.880;2023-12-07T12:15:43;36.00;;;23.87;;
65035;SDS011;51603;49.300;8.880;2023-12-07T12:18:11;28.30;;;22.37;;
65035;SDS011;51603;49.300;8.880;2023-12-07T12:20:38;38.57;;;23.57;;
65035;SDS011;51603;49.300;8.880;2023-12-07T12:23:04;35.73;;;24.40;;
65035;SDS011;51603;49.300;8.880;2023-12-07T12:25:30;37.17;;;24.97;;
65035;SDS011;51603;49.300;8.880;2023-12-07T12:27:57;33.03;;;24.40;;
65035;SDS011;51603;49.300;8.880;2023-12-07T12:30:26;36.60;;;25.00;;
65035;SDS011;51603;49.300;8.880;2023-12-07T12:32:53;32.73;;;23.63;;
65035;SDS011;51603;49.300;8.880;2023-12-07T12:35:18;34.20;;;22.73;;
65035;SDS011;51603;49.300;8.880;2023-12-07T12:37:45;39.83;;;24.40;;
65035;SDS011;51603;49.300;8.880;2023-12-07T12:40:11;35.23;;;24.63;;
65035;SDS011;51603;49.300;8.880;2023-12-07T12:42:47;32.90;;;22.50;;
65035;SDS011;51603;49.300;8.880;2023-12-07T12:45:17;35.10;;;22.17;;
65035;SDS011;51603;49.300;8.880;2023-12-07T12:47:44;30.97;;;23.37;;
65035;SDS011;51603;49.300;8.880;2023-12-07T12:50:11;36.17;;;23.80;;
65035;SDS011;51603;49.300;8.880;2023-12-07T12:52:57;35.33;;;24.07;;
65035;SDS011;51603;49.300;8.880;2023-12-07T12:55:25;30.80;;;22.50;;
65035;SDS011;51603;49.300;8.880;2023-12-07T12:57:51;29.37;;;21.43;;
65035;SDS011;51603;49.300;8.880;2023-12-07T13:00:17;27.97;;;21.10;;
65035;SDS011;51603;49.300;8.880;2023-12-07T13:02:42;25.33;;;20.20;;
65035;SDS011;51603;49.300;8.880;2023-12-07T13:05:08;32.40;;;22.40;;
65035;SDS011;51603;49.300;8.880;2023-12-07T13:07:33;26.63;;;19.30;;
65035;SDS011;51603;49.300;8.880;2023-12-07T13:10:00;24.27;;;20.50;;
65035;SDS011;51603;49.300;8.880;2023-12-07T13:12:26;25.97;;;19.60;;
65035;SDS011;51603;49.300;8.880;2023-12-07T13:14:53;23.63;;;17.90;;
65035;SDS011;51603;49.300;8.880;2023-12-07T13:17:18;28.40;;;20.10;;
65035;SDS011;51603;49.300;8.880;2023-12-07T13:19:44;25.47;;;19.20;;
65035;SDS011;51603;49.300;8.880;2023-12-07T13:22:09;29.87;;;21.23;;
65035;SDS011;51603;49.300;8.880;2023-12-07T13:24:35;26.40;;;21.30;;
65035;SDS011;51603;49.300;8.880;2023-12-07T13:27:01;30.13;;;21.23;;
65035;SDS011;51603;49.300;8.880;2023-12-07T13:29:27;26.87;;;20.27;;
65035;SDS011;51603;49.300;8.880;2023-12-07T13:31:52;25.73;;;20.87;;
65035;SDS011;51603;49.300;8.880;2023-12-07T13:34:18;34.13;;;22.77;;
65035;SDS011;51603;49.300;8.880;2023-12-07T13:36:43;31.50;;;21.80;;
65035;SDS011;51603;49.300;8.880;2023-12-07T13:39:09;28.53;;;21.70;;
65035;SDS011;51603;49.300;8.880;2023-12-07T13:41:37;36.07;;;22.83;;
65035;SDS011;51603;49.300;8.880;2023-12-07T13:44:03;33.30;;;22.80;;
65035;SDS011;51603;49.300;8.880;2023-12-07T13:46:29;27.70;;;21.57;;
65035;SDS011;51603;49.300;8.880;2023-12-07T13:48:56;27.80;;;21.57;;
65035;SDS011;51603;49.300;8.880;2023-12-07T13:51:22;29.73;;;21.93;;
65035;SDS011;51603;49.300;8.880;2023-12-07T13:53:48;29.97;;;22.23;;
65035;SDS011;51603;49.300;8.880;2023-12-07T13:56:13;38.40;;;22.20;;
65035;SDS011;51603;49.300;8.880;2023-12-07T13:58:39;29.50;;;22.67;;
65035;SDS011;51603;49.300;8.880;2023-12-07T14:01:05;29.07;;;22.03;;
65035;SDS011;51603;49.300;8.880;2023-12-07T14:03:30;30.93;;;21.80;;
65035;SDS011;51603;49.300;8.880;2023-12-07T14:05:56;27.47;;;21.37;;
65035;SDS011;51603;49.300;8.880;2023-12-07T14:08:21;23.90;;;19.37;;
65035;SDS011;51603;49.300;8.880;2023-12-07T14:10:47;24.67;;;19.70;;
65035;SDS011;51603;49.300;8.880;2023-12-07T14:13:12;25.17;;;22.23;;
65035;SDS011;51603;49.300;8.880;2023-12-07T14:15:38;25.13;;;20.47;;
65035;SDS011;51603;49.300;8.880;2023-12-07T14:18:03;27.83;;;20.83;;